Time;durP1;ratioP1;P1;durP2;ratioP2;P2;SDS_P1;SDS_P2;PMS_P1;PMS_P2;Temp;Humidity;BMP_temperature;BMP_pressure;BME280_temperature;BME280_humidity;BME280_pressure;Samples;Min_cycle;Max_cycle;Signal;HPM_P1;HPM_P2
2022/10/24 05:45:06;;;;;;;54.15;28.52;;;12.40;99.90;;;;;;6306979;22;20471;-83
2022/10/24 07:00:07;;;;;;;74.90;37.47;;;14.60;99.90;;;;;;6123297;23;20061;-84
2022/10/24 07:06:43;;;;;;;57.72;31.83;;;14.90;99.90;;;;;;6124140;23;20445;-86
2022/10/24 07:12:41;;;;;;;64.05;31.55;;;15.20;99.90;;;;;;6125007;23;20013;-85
2022/10/24 07:15:08;;;;;;;58.20;27.65;;;15.30;99.90;;;;;;6096563;23;20006;-86
2022/10/24 07:17:44;;;;;;;56.42;28.17;;;15.40;99.90;;;;;;6099144;23;19994;-84
2022/10/24 07:20:11;;;;;;;56.05;28.05;;;15.40;99.90;;;;;;6099459;23;20002;-85
2022/10/24 07:22:42;;;;;;;48.15;26.80;;;15.50;99.90;;;;;;6099386;23;20006;-86
2022/10/24 07:25:08;;;;;;;54.50;27.48;;;15.50;99.90;;;;;;6106038;23;19998;-84
2022/10/24 07:27:43;;;;;;;46.45;25.40;;;15.50;99.90;;;;;;6188961;23;20071;-86
2022/10/24 07:30:15;;;;;;;58.03;26.15;;;15.60;99.90;;;;;;6213952;23;20043;-86
2022/10/24 07:32:47;;;;;;;48.47;26.25;;;15.70;99.90;;;;;;6189128;23;20079;-86
2022/10/24 07:35:16;;;;;;;61.33;27.52;;;15.80;99.90;;;;;;6191348;22;20054;-86
2022/10/24 07:37:41;;;;;;;44.10;24.15;;;15.90;99.90;;;;;;6311754;22;20037;-86
2022/10/24 07:40:08;;;;;;;63.17;24.20;;;16.00;99.90;;;;;;6311891;22;19995;-84
2022/10/24 07:42:43;;;;;;;45.53;22.90;;;16.10;99.90;;;;;;6312094;22;20428;-85
2022/10/24 07:45:09;;;;;;;45.70;23.60;;;16.30;99.90;;;;;;6312174;22;20089;-86
2022/10/24 07:47:38;;;;;;;53.13;24.17;;;16.40;99.90;;;;;;6338530;22;20304;-86
2022/10/24 07:50:05;;;;;;;48.78;24.85;;;16.60;99.90;;;;;;6312126;22;19991;-85
2022/10/24 07:52:31;;;;;;;47.55;26.27;;;16.70;99.90;;;;;;6311764;22;20433;-85
2022/10/24 07:54:57;;;;;;;39.03;23.30;;;16.90;99.90;;;;;;6338419;22;20312;-86
2022/10/24 07:57:23;;;;;;;46.38;24.38;;;17.10;99.90;;;;;;6312403;22;20049;-84
2022/10/24 07:59:50;;;;;;;41.20;21.58;;;17.20;99.90;;;;;;6311625;22;19995;-86
2022/10/24 08:02:37;;;;;;;37.30;18.70;;;17.30;99.90;;;;;;6311039;22;20003;-87
2022/10/24 08:05:04;;;;;;;42.30;19.80;;;17.50;99.90;;;;;;6311838;22;20003;-87
2022/10/24 08:07:40;;;;;;;50.13;22.55;;;17.60;99.90;;;;;;6312136;22;19998;-87
2022/10/24 08:10:09;;;;;;;46.90;25.40;;;17.70;99.90;;;;;;6305743;22;20085;-86
2022/10/24 08:12:35;;;;;;;48.22;26.35;;;17.80;99.90;;;;;;6311760;22;19995;-85
2022/10/24 08:15:30;;;;;;;43.10;25.95;;;18.00;99.90;;;;;;6338536;22;19995;-87
2022/10/24 08:18:43;;;;;;;52.78;26.42;;;18.10;99.90;;;;;;6310997;22;20308;-85
2022/10/24 08:24:27;;;;;;;56.92;23.30;;;18.50;99.90;;;;;;6339341;22;20419;-87
2022/10/24 08:27:01;;;;;;;57.33;28.35;;;18.70;99.90;;;;;;6312093;22;20003;-86
2022/10/24 08:29:54;;;;;;;62.22;31.63;;;18.90;99.90;;;;;;6311981;22;19995;-86
2022/10/24 08:32:54;;;;;;;84.18;38.65;;;19.10;99.90;;;;;;6338091;22;20002;-86
2022/10/24 08:35:43;;;;;;;123.82;77.20;;;19.20;99.90;;;;;;6188183;23;20004;-87
2022/10/24 08:39:32;;;;;;;;;;;;;;;;;;;;;
2022/10/24 08:42:44;;;;;;;75.78;45.63;;;19.20;99.90;;;;;;6182738;23;20099;-86
2022/10/24 08:52:28;;;;;;;38.53;17.58;;;19.60;99.90;;;;;;6213345;23;20456;-86
2022/10/24 08:55:12;;;;;;;32.65;18.20;;;19.70;99.90;;;;;;6187557;23;20306;-86
2022/10/24 08:58:51;;;;;;;;;;;;;;;;;;;;;
2022/10/24 09:02:07;;;;;;;;;;;;;;;;;;;;;
2022/10/24 09:05:36;;;;;;;;;;;;;;;;;;;;;
2022/10/24 09:18:59;;;;;;;25.97;14.47;;;20.70;99.90;;;;;;6124287;23;20086;-87
2022/10/24 13:34:20;;;;;;;34.47;11.55;;;;;;;;;;6337912;22;20014;-85
2022/10/24 13:36:49;;;;;;;35.78;11.73;;;;;;;;;;6313084;22;20007;-88
2022/10/24 13:39:20;;;;;;;32.53;12.02;;;;;;;;;;6314022;22;19999;-87
2022/10/24 13:41:48;;;;;;;39.07;12.53;;;;;;;;;;6314767;22;19995;-87
2022/10/24 13:44:33;;;;;;;35.17;12.02;;;;;;;;;;6314263;22;20044;-90
2022/10/24 13:47:27;;;;;;;43.80;12.15;;;;;;;;;;6313993;22;19995;-86
2022/10/24 13:50:20;;;;;;;35.47;12.95;;;;;;;;;;6313443;22;19995;-87
2022/10/24 13:52:56;;;;;;;33.63;12.15;;;;;;;;;;6314611;22;20175;-86
2022/10/24 13:55:22;;;;;;;32.90;11.55;;;;;;;;;;6313379;22;20048;-85
2022/10/24 13:57:54;;;;;;;32.38;12.52;;;;;;;;;;6314024;22;20406;-90
2022/10/24 14:00:33;;;;;;;38.03;12.23;;;;;;;;;;6314095;22;20073;-87
2022/10/24 14:03:11;;;;;;;31.77;12.10;;;;;;;;;;6313698;22;19999;-88
2022/10/24 14:05:39;;;;;;;34.97;12.27;;;;;;;;;;6313164;22;20085;-88
2022/10/24 14:08:06;;;;;;;38.10;13.85;;;;;;;;;;6313524;22;20058;-86
2022/10/24 14:10:36;;;;;;;27.67;12.63;;;;;;;;;;6317339;22;19999;-86
2022/10/24 14:13:02;;;;;;;33.53;11.95;;;;;;;;;;6320663;22;20431;-87
2022/10/24 14:15:34;;;;;;;40.42;13.82;;;;;;;;;;6315986;22;20078;-88
2022/10/24 14:18:05;;;;;;;42.53;14.60;;;;;;;;;;6313865;22;19995;-86
2022/10/24 14:20:36;;;;;;;35.65;13.05;;;;;;;;;;6313656;22;20014;-90
2022/10/24 14:23:16;;;;;;;31.88;11.85;;;;;;;;;;6313477;22;20037;-86
2022/10/24 14:25:42;;;;;;;31.52;11.13;;;;;;;;;;6311453;22;20077;-86
2022/10/24 14:28:19;;;;;;;36.20;11.75;;;;;;;;;;6313819;22;20006;-89
2022/10/24 14:30:53;;;;;;;31.50;11.70;;;;;;;;;;6313712;22;20082;-86
2022/10/24 14:33:24;;;;;;;39.17;11.63;;;;;;;;;;6313852;22;20007;-88
2022/10/24 14:35:54;;;;;;;38.58;11.55;;;;;;;;;;6308464;22;20014;-89
2022/10/24 14:38:21;;;;;;;36.22;10.20;;;;;;;;;;6339409;22;19998;-87
2022/10/24 14:40:48;;;;;;;36.42;11.82;;;;;;;;;;6313301;22;20314;-88
2022/10/24 14:43:23;;;;;;;38.03;11.88;;;;;;;;;;6313653;22;20049;-87
2022/10/24 14:46:08;;;;;;;36.72;11.07;;;;;;;;;;6312883;22;19998;-87
2022/10/24 14:48:35;;;;;;;47.38;10.70;;;;;;;;;;6313308;22;20430;-86
2022/10/24 14:51:09;;;;;;;40.72;11.32;;;23.50;72.40;;;;;;6313160;22;20006;-86
2022/10/24 14:53:38;;;;;;;57.85;23.70;;;23.40;73.90;;;;;;6313700;22;19994;-89
2022/10/24 14:56:07;;;;;;;128.45;53.90;;;23.30;73.60;;;;;;6313092;22;20074;-88
2022/10/24 14:58:36;;;;;;;129.70;53.47;;;23.20;74.70;;;;;;6313430;22;19999;-87
2022/10/24 15:01:03;;;;;;;112.70;46.63;;;23.10;76.00;;;;;;6313303;22;20089;-86
2022/10/24 15:03:28;;;;;;;67.93;26.25;;;23.00;76.40;;;;;;6313190;22;20002;-88
2022/10/24 15:06:11;;;;;;;60.33;26.85;;;22.80;77.80;;;;;;6313009;22;19999;-87
2022/10/24 15:08:41;;;;;;;94.57;42.67;;;22.70;78.50;;;;;;6313309;22;20089;-85
2022/10/24 15:11:25;;;;;;;145.68;68.18;;;22.50;79.80;;;;;;6313148;22;20338;-90
2022/10/24 15:13:52;;;;;;;78.28;31.08;;;22.30;83.50;;;;;;6312895;22;19994;-85
2022/10/24 15:16:34;;;;;;;79.20;28.98;;;22.20;85.20;;;;;;6312967;22;20003;-89
2022/10/24 15:19:04;;;;;;;69.57;22.90;;;22.10;89.70;;;;;;6312938;22;20022;-91
2022/10/24 15:21:37;;;;;;;52.00;17.95;;;21.90;91.30;;;;;;6313308;22;20022;-86
2022/10/24 15:24:04;;;;;;;48.45;18.48;;;21.80;93.30;;;;;;6340600;22;20073;-86
2022/10/24 15:26:33;;;;;;;54.40;18.02;;;21.60;96.00;;;;;;6312846;22;20002;-86
2022/10/24 15:29:02;;;;;;;53.30;18.15;;;21.50;98.00;;;;;;6312941;22;19995;-85
2022/10/24 15:31:28;;;;;;;54.63;24.30;;;21.40;99.90;;;;;;6312259;22;20002;-88
2022/10/24 15:33:54;;;;;;;70.03;27.45;;;21.20;99.90;;;;;;6312355;22;19994;-88
2022/10/24 15:36:27;;;;;;;65.78;26.00;;;21.10;99.90;;;;;;6313360;22;20311;-87
2022/10/24 15:38:58;;;;;;;59.90;24.67;;;21.00;99.90;;;;;;6313388;22;20081;-88
2022/10/24 15:41:28;;;;;;;74.22;26.00;;;20.80;99.90;;;;;;6339979;22;19991;-88
2022/10/24 15:43:56;;;;;;;65.45;22.48;;;20.70;99.90;;;;;;6312714;22;20003;-88
2022/10/24 15:46:22;;;;;;;76.05;23.70;;;20.70;99.90;;;;;;6312550;22;20001;-90
2022/10/24 15:48:48;;;;;;;66.50;24.15;;;20.60;99.90;;;;;;6312512;22;20022;-86
2022/10/24 15:51:16;;;;;;;90.35;27.20;;;20.50;99.90;;;;;;6312562;22;19999;-85
2022/10/24 15:53:44;;;;;;;68.70;25.80;;;20.40;99.90;;;;;;6312444;22;19991;-84
2022/10/24 15:56:11;;;;;;;71.70;26.13;;;20.40;99.90;;;;;;6311982;22;19999;-87
2022/10/24 15:58:38;;;;;;;72.28;26.48;;;20.30;99.90;;;;;;6312078;22;19999;-88
2022/10/24 16:01:05;;;;;;;84.00;26.10;;;20.20;99.90;;;;;;6311735;22;19999;-84
2022/10/24 16:03:33;;;;;;;90.90;27.50;;;20.10;99.90;;;;;;6311670;22;20001;-90
2022/10/24 16:05:59;;;;;;;73.38;27.42;;;20.00;99.90;;;;;;6311376;22;20003;-87
2022/10/24 16:08:25;;;;;;;78.25;27.02;;;19.90;99.90;;;;;;6337734;22;20404;-89
2022/10/24 16:10:51;;;;;;;74.43;26.63;;;19.90;99.90;;;;;;6339284;22;20022;-87
2022/10/24 16:13:20;;;;;;;73.35;25.58;;;19.80;99.90;;;;;;6311662;22;20094;-87
2022/10/24 16:15:46;;;;;;;72.05;25.40;;;19.80;99.90;;;;;;6311214;22;20033;-87
2022/10/24 16:18:12;;;;;;;80.60;25.63;;;19.70;99.90;;;;;;6311744;22;19995;-84
2022/10/24 16:20:38;;;;;;;69.10;25.55;;;19.70;99.90;;;;;;6311628;22;20006;-88
2022/10/24 16:23:05;;;;;;;67.13;24.30;;;19.60;99.90;;;;;;6311842;22;20003;-86
2022/10/24 16:25:33;;;;;;;72.22;26.60;;;19.50;99.90;;;;;;6311541;22;19995;-88
2022/10/24 16:27:59;;;;;;;85.57;30.38;;;19.50;99.90;;;;;;6311332;22;20005;-85
2022/10/24 16:30:28;;;;;;;90.63;30.17;;;19.50;99.90;;;;;;6339061;22;20058;-89
2022/10/24 16:32:54;;;;;;;88.68;28.88;;;19.30;99.90;;;;;;6311321;22;20007;-87
2022/10/24 16:35:24;;;;;;;82.30;30.77;;;19.30;99.90;;;;;;6311062;22;20083;-87
2022/10/24 16:37:52;;;;;;;99.93;30.40;;;19.30;99.90;;;;;;6310579;22;20048;-86
2022/10/24 16:40:18;;;;;;;95.95;29.58;;;19.20;99.90;;;;;;6311336;22;20003;-86
2022/10/24 16:42:44;;;;;;;101.68;40.38;;;19.10;99.90;;;;;;6311017;22;20032;-87
2022/10/24 16:45:10;;;;;;;91.03;35.47;;;19.10;99.90;;;;;;6311635;22;19995;-83
2022/10/24 16:47:36;;;;;;;102.13;35.92;;;19.00;99.90;;;;;;6311434;22;20022;-86
2022/10/24 16:50:03;;;;;;;103.90;37.17;;;18.90;99.90;;;;;;6310877;22;20044;-86
2022/10/24 16:52:29;;;;;;;255.48;119.82;;;18.90;99.90;;;;;;6311172;22;20472;-84
2022/10/24 16:54:55;;;;;;;209.20;96.57;;;18.80;99.90;;;;;;6338836;22;19986;-84
2022/10/24 16:57:22;;;;;;;126.75;53.88;;;18.80;99.90;;;;;;6311362;22;20002;-86
2022/10/24 16:59:48;;;;;;;124.90;56.70;;;18.70;99.90;;;;;;6338924;22;20388;-86
2022/10/24 17:02:16;;;;;;;134.65;52.97;;;18.70;99.90;;;;;;6311362;22;20015;-88
2022/10/24 17:04:42;;;;;;;129.57;52.63;;;18.60;99.90;;;;;;6311132;22;19999;-85
2022/10/24 17:07:10;;;;;;;144.82;51.05;;;18.60;99.90;;;;;;6311611;22;20067;-86
2022/10/24 17:09:43;;;;;;;143.02;57.88;;;18.60;99.90;;;;;;6311126;22;20384;-88
2022/10/24 17:12:09;;;;;;;138.70;53.42;;;18.50;99.90;;;;;;6311020;22;20408;-86
2022/10/24 17:14:37;;;;;;;137.63;52.47;;;18.50;99.90;;;;;;6311462;22;20471;-86
2022/10/24 17:17:04;;;;;;;108.72;51.47;;;18.40;99.90;;;;;;6310841;22;19994;-86
2022/10/24 17:19:30;;;;;;;123.85;52.67;;;18.40;99.90;;;;;;6311183;22;20323;-85
2022/10/24 17:21:57;;;;;;;121.93;51.40;;;18.40;99.90;;;;;;6310460;22;20090;-87
2022/10/24 17:24:24;;;;;;;103.32;47.13;;;18.30;99.90;;;;;;6311044;22;19999;-86
2022/10/24 17:26:51;;;;;;;113.32;50.63;;;18.30;99.90;;;;;;6310341;22;20002;-86
2022/10/24 17:29:27;;;;;;;144.60;59.47;;;18.20;99.90;;;;;;6310518;22;19991;-85
2022/10/24 17:31:54;;;;;;;155.77;67.05;;;18.20;99.90;;;;;;6309200;22;20094;-89
2022/10/24 17:34:31;;;;;;;158.38;65.72;;;18.10;99.90;;;;;;6337964;22;20006;-89
2022/10/24 17:37:05;;;;;;;143.23;60.58;;;18.10;99.90;;;;;;6310301;22;20311;-88
2022/10/24 17:39:55;;;;;;;130.90;59.15;;;18.00;99.90;;;;;;6310986;22;19999;-87
2022/10/24 17:42:21;;;;;;;133.98;57.35;;;18.00;99.90;;;;;;6310902;22;20010;-85
2022/10/24 17:44:47;;;;;;;125.00;57.67;;;17.90;99.90;;;;;;6338093;22;19995;-87
2022/10/24 17:47:16;;;;;;;105.40;55.80;;;17.90;99.90;;;;;;6310271;22;19991;-88
2022/10/24 17:49:42;;;;;;;121.65;54.08;;;17.90;99.90;;;;;;6310616;22;19998;-87
2022/10/24 17:52:16;;;;;;;116.20;54.05;;;17.80;99.90;;;;;;6310646;22;20017;-88
2022/10/24 17:54:42;;;;;;;127.10;58.33;;;17.80;99.90;;;;;;6312048;22;20048;-86
2022/10/24 17:57:08;;;;;;;149.80;66.95;;;17.70;99.90;;;;;;6312704;22;20036;-84
2022/10/24 17:59:34;;;;;;;151.80;69.80;;;17.70;99.90;;;;;;6340111;22;19998;-89
2022/10/24 18:01:59;;;;;;;186.23;94.32;;;17.70;99.90;;;;;;6312459;22;19998;-84
2022/10/24 18:04:25;;;;;;;253.63;136.02;;;17.70;99.90;;;;;;6312633;22;20048;-86
2022/10/24 18:06:51;;;;;;;220.57;108.10;;;17.60;99.90;;;;;;6311960;22;20487;-86
2022/10/24 18:09:17;;;;;;;182.38;90.25;;;17.60;99.90;;;;;;6340535;22;19995;-88
2022/10/24 18:11:43;;;;;;;174.75;84.45;;;17.60;99.90;;;;;;6339528;22;20303;-86
2022/10/24 18:14:08;;;;;;;157.50;82.13;;;17.60;99.90;;;;;;6312092;22;20083;-86
2022/10/24 18:16:36;;;;;;;172.00;84.47;;;17.60;99.90;;;;;;6340161;22;19987;-87
2022/10/24 18:19:02;;;;;;;167.35;83.15;;;17.50;99.90;;;;;;6312397;22;20350;-87
2022/10/24 18:21:28;;;;;;;164.38;89.07;;;17.50;99.90;;;;;;6339852;22;19999;-85
2022/10/24 18:23:55;;;;;;;170.95;91.30;;;17.40;99.90;;;;;;6339732;22;19995;-86
2022/10/24 18:26:24;;;;;;;187.55;92.63;;;17.40;99.90;;;;;;6312407;22;20024;-85
2022/10/24 18:28:51;;;;;;;163.93;83.15;;;17.40;99.90;;;;;;6339587;22;20345;-84
2022/10/24 18:31:20;;;;;;;156.38;77.88;;;17.30;99.90;;;;;;6312455;22;20003;-87
2022/10/24 18:33:46;;;;;;;160.70;76.97;;;17.30;99.90;;;;;;6339529;22;20398;-88
2022/10/24 18:36:14;;;;;;;150.13;75.28;;;17.20;99.90;;;;;;6315859;22;19999;-84
2022/10/24 18:38:41;;;;;;;152.55;86.90;;;17.20;99.90;;;;;;6312802;22;19998;-85
2022/10/24 18:41:30;;;;;;;146.95;85.68;;;17.20;99.90;;;;;;6339850;22;19991;-86
2022/10/24 18:44:03;;;;;;;161.27;83.78;;;17.20;99.90;;;;;;6312296;22;20085;-86
2022/10/24 18:46:33;;;;;;;151.27;82.53;;;17.10;99.90;;;;;;6339467;22;20001;-88
2022/10/24 18:48:59;;;;;;;143.75;76.30;;;17.10;99.90;;;;;;6311475;22;20282;-86
2022/10/24 18:51:42;;;;;;;153.00;80.55;;;17.10;99.90;;;;;;6338350;22;19995;-87
2022/10/24 18:54:15;;;;;;;163.73;89.32;;;17.10;99.90;;;;;;6312348;22;20498;-85
2022/10/24 18:56:41;;;;;;;196.60;102.78;;;17.00;99.90;;;;;;6311601;22;20026;-87
2022/10/24 18:59:15;;;;;;;191.20;101.07;;;17.00;99.90;;;;;;6339170;22;20415;-86
2022/10/24 19:02:15;;;;;;;200.43;105.15;;;17.00;99.90;;;;;;6311979;22;20033;-86
2022/10/24 19:04:42;;;;;;;236.80;127.40;;;16.90;99.90;;;;;;6311656;22;19994;-86
2022/10/24 19:07:09;;;;;;;244.75;138.32;;;16.90;99.90;;;;;;6311993;22;20346;-87
2022/10/24 19:09:35;;;;;;;244.07;136.13;;;16.80;99.90;;;;;;6311206;22;19995;-87
2022/10/24 19:12:01;;;;;;;246.38;136.30;;;16.80;99.90;;;;;;6338647;22;20408;-87
2022/10/24 19:14:27;;;;;;;230.15;133.05;;;16.70;99.90;;;;;;6311593;22;19997;-87
2022/10/24 19:16:56;;;;;;;245.10;136.45;;;16.70;99.90;;;;;;6311000;22;19994;-88
2022/10/24 19:19:26;;;;;;;240.82;137.68;;;16.60;99.90;;;;;;6339495;22;20040;-85
2022/10/24 19:21:52;;;;;;;235.07;134.70;;;16.60;99.90;;;;;;6311400;22;20006;-87
2022/10/24 19:24:18;;;;;;;224.93;132.50;;;16.50;99.90;;;;;;6311868;22;20479;-83
2022/10/24 19:26:44;;;;;;;236.35;141.00;;;16.50;99.90;;;;;;6311669;22;19999;-85
2022/10/24 19:29:09;;;;;;;237.65;140.80;;;16.50;99.90;;;;;;6311987;22;19994;-86
2022/10/24 19:31:35;;;;;;;231.02;139.48;;;16.50;99.90;;;;;;6311498;22;19999;-87
2022/10/24 19:34:01;;;;;;;230.32;139.85;;;16.50;99.90;;;;;;6338601;22;20367;-84
2022/10/24 19:36:29;;;;;;;202.50;124.65;;;16.40;99.90;;;;;;6339462;22;20478;-86
2022/10/24 19:38:58;;;;;;;197.50;116.55;;;16.40;99.90;;;;;;6338947;22;19991;-86
2022/10/24 19:41:23;;;;;;;193.80;112.72;;;16.40;99.90;;;;;;6311797;22;20344;-82
2022/10/24 19:43:52;;;;;;;193.10;116.18;;;16.30;99.90;;;;;;6337159;22;20431;-87
2022/10/24 19:46:18;;;;;;;200.60;112.10;;;16.30;99.90;;;;;;6339118;22;19995;-84
2022/10/24 19:48:44;;;;;;;181.93;109.28;;;16.20;99.90;;;;;;6311487;22;20002;-86
2022/10/24 19:51:11;;;;;;;184.20;107.32;;;16.30;99.90;;;;;;6311319;22;19995;-85
2022/10/24 19:53:39;;;;;;;187.02;102.47;;;16.20;99.90;;;;;;6338480;22;20066;-83
2022/10/24 19:56:06;;;;;;;162.20;86.63;;;16.10;99.90;;;;;;6310925;22;20019;-83
2022/10/24 19:58:32;;;;;;;188.55;104.20;;;16.10;99.90;;;;;;6311206;22;20051;-83
2022/10/24 20:01:13;;;;;;;248.32;122.72;;;16.10;99.90;;;;;;6311096;22;20085;-83
2022/10/24 20:03:42;;;;;;;259.48;132.27;;;16.10;99.90;;;;;;6311707;22;20074;-82
2022/10/24 20:06:08;;;;;;;290.40;148.65;;;16.10;99.90;;;;;;6311041;22;20334;-84
2022/10/24 20:08:34;;;;;;;308.20;164.90;;;16.00;99.90;;;;;;6339229;22;19987;-83
2022/10/24 20:11:01;;;;;;;146.30;78.50;;;16.00;99.90;;;;;;6338840;22;20011;-86
2022/10/24 20:13:27;;;;;;;167.32;84.10;;;16.00;99.90;;;;;;6311061;22;20006;-85
2022/10/24 20:15:58;;;;;;;143.15;80.20;;;15.90;99.90;;;;;;6310950;22;20001;-87
2022/10/24 20:18:25;;;;;;;175.00;86.70;;;16.00;99.90;;;;;;6311390;22;19990;-86
2022/10/24 20:20:51;;;;;;;138.23;74.47;;;16.00;99.90;;;;;;6310804;22;19999;-87
2022/10/24 20:23:18;;;;;;;149.70;73.63;;;15.90;99.90;;;;;;6311505;22;20128;-88
2022/10/24 20:25:44;;;;;;;127.28;67.85;;;15.90;99.90;;;;;;6311100;22;19995;-84
2022/10/24 20:28:10;;;;;;;137.77;69.75;;;15.80;99.90;;;;;;6311035;22;20037;-86
2022/10/24 20:30:44;;;;;;;94.50;44.72;;;15.90;99.90;;;;;;6311338;22;20086;-87
2022/10/24 20:33:12;;;;;;;81.47;42.90;;;15.70;99.90;;;;;;6311229;22;20003;-84
2022/10/24 20:35:38;;;;;;;86.32;42.25;;;15.70;99.90;;;;;;6310547;22;20021;-84
2022/10/24 20:38:04;;;;;;;88.63;43.38;;;15.70;99.90;;;;;;6338189;22;20065;-86
2022/10/24 20:40:30;;;;;;;90.22;47.08;;;15.70;99.90;;;;;;6338701;22;19991;-87
2022/10/24 20:42:56;;;;;;;75.72;43.63;;;15.60;99.90;;;;;;6337151;22;20034;-86
2022/10/24 20:45:21;;;;;;;85.75;43.80;;;15.60;99.90;;;;;;6337296;22;20001;-86
2022/10/24 20:47:47;;;;;;;87.40;39.85;;;15.50;99.90;;;;;;6310691;22;20450;-86
2022/10/24 20:50:14;;;;;;;76.70;39.90;;;15.50;99.90;;;;;;6339733;22;20069;-87
2022/10/24 20:52:40;;;;;;;93.70;41.33;;;15.50;99.90;;;;;;6312232;22;20007;-88
2022/10/24 20:55:06;;;;;;;87.10;37.67;;;15.50;99.90;;;;;;6311936;22;20483;-87
2022/10/24 20:57:32;;;;;;;76.07;38.15;;;15.50;99.90;;;;;;6311791;22;20002;-88
2022/10/24 20:59:58;;;;;;;87.00;37.65;;;15.50;99.90;;;;;;6311730;22;20299;-89
2022/10/24 21:02:23;;;;;;;69.03;34.30;;;15.50;99.90;;;;;;6312462;22;20002;-87
2022/10/24 21:04:49;;;;;;;76.13;35.60;;;15.40;99.90;;;;;;6312027;22;20052;-88
2022/10/24 21:07:15;;;;;;;84.13;33.70;;;15.40;99.90;;;;;;6311780;22;20022;-88
2022/10/24 21:09:41;;;;;;;76.57;33.67;;;15.40;99.90;;;;;;6311413;22;20013;-86
2022/10/24 21:12:06;;;;;;;68.32;30.60;;;15.30;99.90;;;;;;6311299;22;20002;-86
2022/10/24 21:14:32;;;;;;;67.78;31.70;;;15.20;99.90;;;;;;6338640;22;19999;-88
2022/10/24 21:16:58;;;;;;;68.20;30.65;;;15.20;99.90;;;;;;6337721;22;20006;-85
2022/10/24 21:19:25;;;;;;;79.13;32.67;;;15.20;99.90;;;;;;6311608;22;19991;-86
2022/10/24 21:21:51;;;;;;;61.00;32.88;;;15.20;99.90;;;;;;6339682;22;19995;-84
2022/10/24 21:24:17;;;;;;;66.30;30.83;;;15.10;99.90;;;;;;6338265;22;20038;-86
2022/10/24 21:26:43;;;;;;;65.53;32.70;;;15.10;99.90;;;;;;6311826;22;19995;-86
2022/10/24 21:29:10;;;;;;;72.05;32.85;;;15.10;99.90;;;;;;6313079;22;20003;-85
2022/10/24 21:31:36;;;;;;;68.55;30.48;;;15.10;99.90;;;;;;6313794;22;20010;-85
2022/10/24 21:34:02;;;;;;;67.35;30.80;;;15.00;99.90;;;;;;6340905;22;19991;-85
2022/10/24 21:36:28;;;;;;;70.07;31.70;;;15.00;99.90;;;;;;6314019;22;20002;-86
2022/10/24 21:38:56;;;;;;;67.18;30.15;;;15.00;99.90;;;;;;6313707;22;20044;-85
2022/10/24 21:41:23;;;;;;;68.35;29.85;;;15.00;99.90;;;;;;6313606;22;19995;-83
2022/10/24 21:43:52;;;;;;;68.60;29.85;;;15.00;99.90;;;;;;6314041;22;20006;-87
2022/10/24 21:46:20;;;;;;;60.28;30.02;;;14.90;99.90;;;;;;6313553;22;19995;-89
2022/10/24 21:48:51;;;;;;;64.88;30.10;;;14.90;99.90;;;;;;6312171;22;19994;-86
2022/10/24 21:51:28;;;;;;;59.22;29.50;;;14.80;99.90;;;;;;6339088;22;20020;-86
2022/10/24 21:54:03;;;;;;;64.78;30.20;;;14.90;99.90;;;;;;6312966;22;20062;-86
2022/10/24 21:56:31;;;;;;;56.38;25.83;;;14.80;99.90;;;;;;6312969;22;20040;-85
2022/10/24 21:58:59;;;;;;;54.92;25.75;;;14.80;99.90;;;;;;6312669;22;20411;-87
2022/10/24 22:01:28;;;;;;;62.88;26.83;;;14.80;99.90;;;;;;6340434;22;20048;-83
2022/10/24 22:03:55;;;;;;;62.85;27.27;;;14.80;99.90;;;;;;6313409;22;19995;-88
2022/10/24 22:06:21;;;;;;;59.95;28.33;;;14.70;99.90;;;;;;6313352;22;19999;-85
2022/10/24 22:08:49;;;;;;;52.85;25.45;;;14.70;99.90;;;;;;6313491;22;20006;-87
2022/10/24 22:11:23;;;;;;;59.92;25.73;;;14.70;99.90;;;;;;6313497;22;20027;-87
2022/10/24 22:13:50;;;;;;;50.63;25.17;;;14.70;99.90;;;;;;6313590;22;19991;-85
2022/10/24 22:16:18;;;;;;;51.90;24.08;;;14.70;99.90;;;;;;6313509;22;20074;-84
2022/10/24 22:18:44;;;;;;;46.50;22.50;;;14.70;99.90;;;;;;6314133;22;20006;-85
2022/10/24 22:21:19;;;;;;;56.33;23.30;;;14.70;99.90;;;;;;6313545;22;19991;-86
2022/10/24 22:23:45;;;;;;;71.70;31.77;;;14.70;99.90;;;;;;6313530;22;20043;-84
2022/10/24 22:26:13;;;;;;;71.75;35.67;;;14.60;99.90;;;;;;6313436;22;20073;-85
2022/10/24 22:28:38;;;;;;;77.75;37.63;;;14.60;99.90;;;;;;6313119;22;20022;-87
2022/10/24 22:31:05;;;;;;;79.63;39.03;;;14.70;99.90;;;;;;6313094;22;20493;-84
2022/10/24 22:33:36;;;;;;;79.57;38.38;;;14.60;99.90;;;;;;6313442;22;20003;-86
2022/10/24 22:36:06;;;;;;;72.80;38.67;;;14.60;99.90;;;;;;6312925;22;20038;-84
2022/10/24 22:38:32;;;;;;;74.20;39.25;;;14.60;99.90;;;;;;6313369;22;20327;-85
2022/10/24 22:40:58;;;;;;;74.00;39.53;;;14.60;99.90;;;;;;6339856;22;20469;-86
2022/10/24 22:43:24;;;;;;;81.55;39.75;;;14.60;99.90;;;;;;6312866;22;19994;-87
2022/10/24 22:46:28;;;;;;;70.68;38.42;;;14.60;99.90;;;;;;6312915;22;20055;-87
2022/10/24 22:49:06;;;;;;;80.00;38.65;;;14.60;99.90;;;;;;6281288;22;20022;-86
2022/10/24 22:51:32;;;;;;;78.25;36.60;;;14.60;99.90;;;;;;6312613;22;20007;-86
2022/10/24 22:53:58;;;;;;;74.65;35.72;;;14.60;99.90;;;;;;6313051;22;20132;-85
2022/10/24 22:56:31;;;;;;;70.85;33.85;;;14.50;99.90;;;;;;6339862;22;20299;-87
2022/10/24 22:58:58;;;;;;;73.82;35.30;;;14.50;99.90;;;;;;6312858;22;19998;-86
2022/10/24 23:01:27;;;;;;;72.53;36.10;;;14.50;99.90;;;;;;6312986;22;20277;-86
2022/10/24 23:04:30;;;;;;;78.38;37.30;;;14.50;99.90;;;;;;6312820;22;20005;-87
2022/10/24 23:07:19;;;;;;;80.70;37.90;;;14.40;99.90;;;;;;6340441;22;19999;-85
2022/10/24 23:09:45;;;;;;;68.57;36.25;;;14.40;99.90;;;;;;6312520;22;20029;-86
2022/10/24 23:12:17;;;;;;;78.75;36.90;;;14.30;99.90;;;;;;6312340;22;20317;-84
2022/10/24 23:14:43;;;;;;;;;;;14.20;99.90;;;;;;6313550;22;20067;-86
2022/10/24 23:17:13;;;;;;;71.63;36.72;;;14.30;99.90;;;;;;6312906;22;19898;-87
2022/10/24 23:19:43;;;;;;;74.22;34.40;;;14.20;99.90;;;;;;6312736;22;19999;-87
2022/10/24 23:22:32;;;;;;;72.80;33.28;;;14.10;99.90;;;;;;6312893;22;20311;-85
2022/10/24 23:25:00;;;;;;;62.17;30.02;;;14.10;99.90;;;;;;6304228;22;20040;-87
2022/10/24 23:27:38;;;;;;;67.20;31.52;;;14.00;99.90;;;;;;6312848;22;19995;-86
2022/10/24 23:30:14;;;;;;;72.75;30.83;;;14.00;99.90;;;;;;6312797;22;19999;-84
2022/10/24 23:32:40;;;;;;;62.63;30.77;;;14.00;99.90;;;;;;6312555;22;20037;-91
2022/10/24 23:35:07;;;;;;;64.47;30.45;;;13.90;99.90;;;;;;6312629;22;20007;-88
2022/10/24 23:37:33;;;;;;;69.47;31.80;;;13.90;99.90;;;;;;6312666;22;20002;-87
2022/10/24 23:40:02;;;;;;;74.90;32.40;;;13.80;99.90;;;;;;6312615;22;19991;-89
2022/10/24 23:42:29;;;;;;;69.63;32.20;;;13.80;99.90;;;;;;6312151;22;20003;-84
2022/10/24 23:44:55;;;;;;;75.90;32.65;;;13.90;99.90;;;;;;6312204;22;19991;-89
2022/10/24 23:47:20;;;;;;;69.82;32.10;;;13.90;99.90;;;;;;6312647;22;20002;-88
2022/10/24 23:49:49;;;;;;;69.65;33.33;;;13.80;99.90;;;;;;6312667;22;19998;-86
2022/10/24 23:52:24;;;;;;;77.50;35.53;;;13.80;99.90;;;;;;6312099;22;20030;-86
2022/10/24 23:54:50;;;;;;;71.07;32.28;;;13.80;99.90;;;;;;6312183;22;19991;-86
2022/10/24 23:57:18;;;;;;;68.22;29.65;;;13.80;99.90;;;;;;6312420;22;20006;-84
2022/10/24 23:59:44;;;;;;;62.47;27.52;;;13.80;99.90;;;;;;6312303;22;19994;-86
